sensor_id;sensor_type;location;lat;lon;timestamp;P1;durP1;ratioP1;P2;durP2;ratioP2
35699;SDS011;21818;51.078;12.108;2023-06-14T00:01:01;3.92;;;2.20;;
35699;SDS011;21818;51.078;12.108;2023-06-14T00:03:28;4.35;;;2.30;;
35699;SDS011;21818;51.078;12.108;2023-06-14T00:05:54;7.85;;;2.55;;
35699;SDS011;21818;51.078;12.108;2023-06-14T00:08:19;7.30;;;2.60;;
35699;SDS011;21818;51.078;12.108;2023-06-14T00:10:47;5.32;;;2.83;;
35699;SDS011;21818;51.078;12.108;2023-06-14T00:13:13;4.97;;;2.30;;
35699;SDS011;21818;51.078;12.108;2023-06-14T00:15:39;9.57;;;2.63;;
35699;SDS011;21818;51.078;12.108;2023-06-14T00:18:05;9.35;;;2.78;;
35699;SDS011;21818;51.078;12.108;2023-06-14T00:20:32;7.80;;;2.55;;
35699;SDS011;21818;51.078;12.108;2023-06-14T00:23:01;7.05;;;2.20;;
35699;SDS011;21818;51.078;12.108;2023-06-14T00:25:27;9.43;;;2.42;;
35699;SDS011;21818;51.078;12.108;2023-06-14T00:27:53;7.22;;;2.28;;
35699;SDS011;21818;51.078;12.108;2023-06-14T00:30:19;7.88;;;2.33;;
35699;SDS011;21818;51.078;12.108;2023-06-14T00:32:46;4.47;;;1.90;;
35699;SDS011;21818;51.078;12.108;2023-06-14T00:35:12;6.13;;;2.20;;
35699;SDS011;21818;51.078;12.108;2023-06-14T00:37:38;5.30;;;2.00;;
35699;SDS011;21818;51.078;12.108;2023-06-14T00:40:04;8.02;;;2.55;;
35699;SDS011;21818;51.078;12.108;2023-06-14T00:42:30;6.72;;;2.60;;
35699;SDS011;21818;51.078;12.108;2023-06-14T00:44:56;3.35;;;1.90;;
35699;SDS011;21818;51.078;12.108;2023-06-14T00:47:22;6.35;;;2.15;;
35699;SDS011;21818;51.078;12.108;2023-06-14T00:49:49;4.50;;;1.88;;
35699;SDS011;21818;51.078;12.108;2023-06-14T00:52:18;7.43;;;2.00;;
35699;SDS011;21818;51.078;12.108;2023-06-14T00:54:44;9.70;;;2.15;;
35699;SDS011;21818;51.078;12.108;2023-06-14T00:57:10;4.93;;;1.90;;
35699;SDS011;21818;51.078;12.108;2023-06-14T00:59:38;11.40;;;2.65;;
35699;SDS011;21818;51.078;12.108;2023-06-14T01:02:08;4.50;;;1.83;;
35699;SDS011;21818;51.078;12.108;2023-06-14T01:04:34;5.30;;;1.98;;
35699;SDS011;21818;51.078;12.108;2023-06-14T01:07:15;6.78;;;2.13;;
35699;SDS011;21818;51.078;12.108;2023-06-14T01:12:50;9.45;;;1.98;;
35699;SDS011;21818;51.078;12.108;2023-06-14T01:15:21;6.63;;;1.73;;
35699;SDS011;21818;51.078;12.108;2023-06-14T01:17:48;5.88;;;1.75;;
35699;SDS011;21818;51.078;12.108;2023-06-14T01:20:22;8.43;;;2.58;;
35699;SDS011;21818;51.078;12.108;2023-06-14T01:22:53;4.40;;;1.90;;
35699;SDS011;21818;51.078;12.108;2023-06-14T01:25:19;8.85;;;1.98;;
35699;SDS011;21818;51.078;12.108;2023-06-14T01:27:48;5.57;;;2.20;;
35699;SDS011;21818;51.078;12.108;2023-06-14T01:30:16;6.95;;;2.00;;
35699;SDS011;21818;51.078;12.108;2023-06-14T01:32:42;4.18;;;2.17;;
35699;SDS011;21818;51.078;12.108;2023-06-14T01:35:10;3.28;;;2.03;;
35699;SDS011;21818;51.078;12.108;2023-06-14T01:37:36;2.67;;;2.10;;
35699;SDS011;21818;51.078;12.108;2023-06-14T01:40:02;4.55;;;1.80;;
35699;SDS011;21818;51.078;12.108;2023-06-14T01:42:31;11.15;;;1.90;;
35699;SDS011;21818;51.078;12.108;2023-06-14T01:45:00;7.13;;;3.05;;
35699;SDS011;21818;51.078;12.108;2023-06-14T01:47:26;7.35;;;1.67;;
35699;SDS011;21818;51.078;12.108;2023-06-14T01:49:52;10.00;;;1.90;;
35699;SDS011;21818;51.078;12.108;2023-06-14T01:52:18;3.17;;;1.60;;
35699;SDS011;21818;51.078;12.108;2023-06-14T01:54:44;4.03;;;1.88;;
35699;SDS011;21818;51.078;12.108;2023-06-14T01:57:11;5.30;;;2.13;;
35699;SDS011;21818;51.078;12.108;2023-06-14T01:59:36;5.28;;;2.15;;
35699;SDS011;21818;51.078;12.108;2023-06-14T02:02:02;3.28;;;1.80;;
35699;SDS011;21818;51.078;12.108;2023-06-14T02:04:28;5.53;;;1.95;;
35699;SDS011;21818;51.078;12.108;2023-06-14T02:06:54;5.85;;;2.13;;
35699;SDS011;21818;51.078;12.108;2023-06-14T02:09:19;4.35;;;1.90;;
35699;SDS011;21818;51.078;12.108;2023-06-14T02:11:45;6.70;;;1.90;;
35699;SDS011;21818;51.078;12.108;2023-06-14T02:14:10;5.45;;;3.00;;
35699;SDS011;21818;51.078;12.108;2023-06-14T02:16:36;3.10;;;1.67;;
35699;SDS011;21818;51.078;12.108;2023-06-14T02:19:03;4.22;;;1.52;;
35699;SDS011;21818;51.078;12.108;2023-06-14T02:21:29;4.03;;;1.98;;
35699;SDS011;21818;51.078;12.108;2023-06-14T02:23:55;5.93;;;1.77;;
35699;SDS011;21818;51.078;12.108;2023-06-14T02:26:21;2.75;;;1.63;;
35699;SDS011;21818;51.078;12.108;2023-06-14T02:28:47;5.32;;;1.98;;
35699;SDS011;21818;51.078;12.108;2023-06-14T02:31:13;4.28;;;2.00;;
35699;SDS011;21818;51.078;12.108;2023-06-14T02:33:39;7.65;;;2.00;;
35699;SDS011;21818;51.078;12.108;2023-06-14T02:36:05;4.50;;;1.77;;
35699;SDS011;21818;51.078;12.108;2023-06-14T02:38:31;4.65;;;1.70;;
35699;SDS011;21818;51.078;12.108;2023-06-14T02:40:57;8.68;;;2.85;;
35699;SDS011;21818;51.078;12.108;2023-06-14T02:43:24;4.95;;;1.50;;
35699;SDS011;21818;51.078;12.108;2023-06-14T02:45:49;7.63;;;2.10;;
35699;SDS011;21818;51.078;12.108;2023-06-14T02:48:15;6.22;;;2.00;;
35699;SDS011;21818;51.078;12.108;2023-06-14T02:50:41;3.65;;;1.73;;
35699;SDS011;21818;51.078;12.108;2023-06-14T02:53:07;7.32;;;1.85;;
35699;SDS011;21818;51.078;12.108;2023-06-14T02:55:33;7.70;;;2.00;;
35699;SDS011;21818;51.078;12.108;2023-06-14T02:57:58;4.03;;;2.00;;
35699;SDS011;21818;51.078;12.108;2023-06-14T03:00:24;8.48;;;1.95;;
35699;SDS011;21818;51.078;12.108;2023-06-14T03:02:49;4.53;;;2.40;;
35699;SDS011;21818;51.078;12.108;2023-06-14T03:05:16;3.60;;;2.15;;
35699;SDS011;21818;51.078;12.108;2023-06-14T03:07:46;3.38;;;1.73;;
35699;SDS011;21818;51.078;12.108;2023-06-14T03:10:12;3.83;;;2.08;;
35699;SDS011;21818;51.078;12.108;2023-06-14T03:12:38;5.93;;;1.90;;
35699;SDS011;21818;51.078;12.108;2023-06-14T03:15:04;5.10;;;2.60;;
35699;SDS011;21818;51.078;12.108;2023-06-14T03:17:30;3.55;;;1.67;;
35699;SDS011;21818;51.078;12.108;2023-06-14T03:19:58;4.18;;;1.58;;
35699;SDS011;21818;51.078;12.108;2023-06-14T03:22:25;7.07;;;2.15;;
35699;SDS011;21818;51.078;12.108;2023-06-14T03:24:50;3.17;;;1.88;;
35699;SDS011;21818;51.078;12.108;2023-06-14T03:27:17;4.78;;;1.70;;
35699;SDS011;21818;51.078;12.108;2023-06-14T03:29:43;4.63;;;1.77;;
35699;SDS011;21818;51.078;12.108;2023-06-14T03:32:09;5.60;;;2.00;;
35699;SDS011;21818;51.078;12.108;2023-06-14T03:34:35;4.75;;;1.80;;
35699;SDS011;21818;51.078;12.108;2023-06-14T03:37:00;4.32;;;2.10;;
35699;SDS011;21818;51.078;12.108;2023-06-14T03:39:26;6.03;;;2.58;;
35699;SDS011;21818;51.078;12.108;2023-06-14T03:41:52;4.47;;;2.08;;
35699;SDS011;21818;51.078;12.108;2023-06-14T03:44:18;3.10;;;1.98;;
35699;SDS011;21818;51.078;12.108;2023-06-14T03:46:45;3.45;;;1.90;;
35699;SDS011;21818;51.078;12.108;2023-06-14T03:49:11;5.60;;;2.13;;
35699;SDS011;21818;51.078;12.108;2023-06-14T03:51:37;4.53;;;2.25;;
35699;SDS011;21818;51.078;12.108;2023-06-14T03:54:02;3.38;;;1.80;;
35699;SDS011;21818;51.078;12.108;2023-06-14T03:56:28;5.32;;;2.47;;
35699;SDS011;21818;51.078;12.108;2023-06-14T03:58:53;4.72;;;1.95;;
35699;SDS011;21818;51.078;12.108;2023-06-14T04:01:20;2.55;;;1.75;;
35699;SDS011;21818;51.078;12.108;2023-06-14T04:03:46;4.85;;;2.00;;
35699;SDS011;21818;51.078;12.108;2023-06-14T04:06:11;5.85;;;2.10;;
35699;SDS011;21818;51.078;12.108;2023-06-14T04:08:37;4.75;;;2.05;;
35699;SDS011;21818;51.078;12.108;2023-06-14T04:11:04;4.53;;;2.10;;
35699;SDS011;21818;51.078;12.108;2023-06-14T04:13:30;6.85;;;2.30;;
35699;SDS011;21818;51.078;12.108;2023-06-14T04:15:56;2.67;;;2.00;;
35699;SDS011;21818;51.078;12.108;2023-06-14T04:18:21;3.58;;;2.28;;
35699;SDS011;21818;51.078;12.108;2023-06-14T04:20:48;2.63;;;2.10;;
35699;SDS011;21818;51.078;12.108;2023-06-14T04:23:15;5.68;;;2.25;;
35699;SDS011;21818;51.078;12.108;2023-06-14T04:25:43;10.40;;;3.22;;
35699;SDS011;21818;51.078;12.108;2023-06-14T04:28:12;4.03;;;1.98;;
35699;SDS011;21818;51.078;12.108;2023-06-14T04:30:40;7.80;;;2.70;;
35699;SDS011;21818;51.078;12.108;2023-06-14T04:33:06;4.30;;;2.30;;
35699;SDS011;21818;51.078;12.108;2023-06-14T04:35:32;3.47;;;2.10;;
35699;SDS011;21818;51.078;12.108;2023-06-14T04:38:00;4.05;;;2.22;;
35699;SDS011;21818;51.078;12.108;2023-06-14T04:40:26;4.97;;;2.15;;
35699;SDS011;21818;51.078;12.108;2023-06-14T04:42:52;4.35;;;2.45;;
35699;SDS011;21818;51.078;12.108;2023-06-14T04:45:17;5.85;;;2.45;;
35699;SDS011;21818;51.078;12.108;2023-06-14T04:47:43;4.03;;;2.40;;
35699;SDS011;21818;51.078;12.108;2023-06-14T04:50:09;6.13;;;2.53;;
35699;SDS011;21818;51.078;12.108;2023-06-14T04:52:38;4.00;;;2.53;;
35699;SDS011;21818;51.078;12.108;2023-06-14T04:55:03;4.47;;;2.60;;
35699;SDS011;21818;51.078;12.108;2023-06-14T04:57:30;4.20;;;2.58;;
35699;SDS011;21818;51.078;12.108;2023-06-14T04:59:56;4.10;;;2.42;;
35699;SDS011;21818;51.078;12.108;2023-06-14T05:02:22;2.88;;;2.28;;
35699;SDS011;21818;51.078;12.108;2023-06-14T05:04:49;5.10;;;2.53;;
35699;SDS011;21818;51.078;12.108;2023-06-14T05:07:15;5.43;;;2.50;;
35699;SDS011;21818;51.078;12.108;2023-06-14T05:09:41;4.88;;;2.42;;
35699;SDS011;21818;51.078;12.108;2023-06-14T05:12:07;5.65;;;2.90;;
35699;SDS011;21818;51.078;12.108;2023-06-14T05:14:33;3.78;;;2.53;;
35699;SDS011;21818;51.078;12.108;2023-06-14T05:16:59;9.82;;;2.00;;
35699;SDS011;21818;51.078;12.108;2023-06-14T05:19:25;21.15;;;4.78;;
35699;SDS011;21818;51.078;12.108;2023-06-14T05:21:51;30.13;;;5.43;;
35699;SDS011;21818;51.078;12.108;2023-06-14T05:24:18;27.35;;;6.25;;
35699;SDS011;21818;51.078;12.108;2023-06-14T05:26:44;18.42;;;4.95;;
35699;SDS011;21818;51.078;12.108;2023-06-14T05:29:10;14.00;;;4.88;;
35699;SDS011;21818;51.078;12.108;2023-06-14T05:31:36;20.83;;;4.28;;
35699;SDS011;21818;51.078;12.108;2023-06-14T05:34:01;25.13;;;4.78;;
35699;SDS011;21818;51.078;12.108;2023-06-14T05:36:27;21.00;;;4.38;;
35699;SDS011;21818;51.078;12.108;2023-06-14T05:38:53;16.58;;;3.92;;
35699;SDS011;21818;51.078;12.108;2023-06-14T05:41:28;18.17;;;4.40;;
35699;SDS011;21818;51.078;12.108;2023-06-14T05:43:54;17.45;;;4.28;;
35699;SDS011;21818;51.078;12.108;2023-06-14T05:46:21;15.88;;;4.47;;
35699;SDS011;21818;51.078;12.108;2023-06-14T05:48:49;16.20;;;3.85;;
35699;SDS011;21818;51.078;12.108;2023-06-14T05:51:15;12.65;;;4.05;;
35699;SDS011;21818;51.078;12.108;2023-06-14T05:53:44;14.52;;;4.22;;
35699;SDS011;21818;51.078;12.108;2023-06-14T05:56:11;16.00;;;3.70;;
35699;SDS011;21818;51.078;12.108;2023-06-14T05:58:36;17.45;;;3.90;;
35699;SDS011;21818;51.078;12.108;2023-06-14T06:01:02;12.70;;;4.13;;
35699;SDS011;21818;51.078;12.108;2023-06-14T06:03:27;18.35;;;3.70;;
35699;SDS011;21818;51.078;12.108;2023-06-14T06:05:54;12.23;;;3.90;;
35699;SDS011;21818;51.078;12.108;2023-06-14T06:08:20;12.32;;;3.50;;
35699;SDS011;21818;51.078;12.108;2023-06-14T06:10:46;15.13;;;4.55;;
35699;SDS011;21818;51.078;12.108;2023-06-14T06:13:11;14.00;;;3.58;;
35699;SDS011;21818;51.078;12.108;2023-06-14T06:15:37;13.60;;;3.40;;
35699;SDS011;21818;51.078;12.108;2023-06-14T06:18:02;13.80;;;3.38;;
35699;SDS011;21818;51.078;12.108;2023-06-14T06:20:28;13.68;;;3.83;;
35699;SDS011;21818;51.078;12.108;2023-06-14T06:22:55;12.90;;;3.75;;
35699;SDS011;21818;51.078;12.108;2023-06-14T06:25:22;8.20;;;3.25;;
35699;SDS011;21818;51.078;12.108;2023-06-14T06:27:50;11.93;;;3.22;;
35699;SDS011;21818;51.078;12.108;2023-06-14T06:30:17;12.65;;;3.30;;
35699;SDS011;21818;51.078;12.108;2023-06-14T06:32:42;12.20;;;3.28;;
35699;SDS011;21818;51.078;12.108;2023-06-14T06:35:08;13.52;;;3.13;;
35699;SDS011;21818;51.078;12.108;2023-06-14T06:37:35;12.30;;;4.50;;
35699;SDS011;21818;51.078;12.108;2023-06-14T06:40:01;11.38;;;3.50;;
35699;SDS011;21818;51.078;12.108;2023-06-14T06:42:28;13.30;;;3.55;;
35699;SDS011;21818;51.078;12.108;2023-06-14T06:44:54;10.90;;;3.22;;
35699;SDS011;21818;51.078;12.108;2023-06-14T06:47:20;9.98;;;3.70;;
35699;SDS011;21818;51.078;12.108;2023-06-14T06:49:45;9.70;;;3.13;;
35699;SDS011;21818;51.078;12.108;2023-06-14T06:52:11;11.55;;;3.70;;
35699;SDS011;21818;51.078;12.108;2023-06-14T06:54:36;12.07;;;3.33;;
35699;SDS011;21818;51.078;12.108;2023-06-14T06:57:02;9.30;;;3.40;;
35699;SDS011;21818;51.078;12.108;2023-06-14T06:59:28;10.10;;;2.90;;
35699;SDS011;21818;51.078;12.108;2023-06-14T07:01:53;8.52;;;3.28;;
35699;SDS011;21818;51.078;12.108;2023-06-14T07:04:19;11.75;;;3.30;;
35699;SDS011;21818;51.078;12.108;2023-06-14T07:06:45;8.32;;;2.85;;
35699;SDS011;21818;51.078;12.108;2023-06-14T07:09:12;8.85;;;2.97;;
35699;SDS011;21818;51.078;12.108;2023-06-14T07:11:39;11.75;;;3.25;;
35699;SDS011;21818;51.078;12.108;2023-06-14T07:14:05;9.77;;;3.33;;
35699;SDS011;21818;51.078;12.108;2023-06-14T07:16:30;9.45;;;3.53;;
35699;SDS011;21818;51.078;12.108;2023-06-14T07:18:56;13.07;;;3.80;;
35699;SDS011;21818;51.078;12.108;2023-06-14T07:21:21;8.85;;;3.10;;
35699;SDS011;21818;51.078;12.108;2023-06-14T07:23:47;8.07;;;3.35;;
35699;SDS011;21818;51.078;12.108;2023-06-14T07:26:12;10.45;;;3.72;;
35699;SDS011;21818;51.078;12.108;2023-06-14T07:28:38;10.88;;;3.10;;
35699;SDS011;21818;51.078;12.108;2023-06-14T07:31:04;10.32;;;2.80;;
35699;SDS011;21818;51.078;12.108;2023-06-14T07:33:29;10.20;;;3.25;;
35699;SDS011;21818;51.078;12.108;2023-06-14T07:35:55;13.45;;;3.83;;
35699;SDS011;21818;51.078;12.108;2023-06-14T07:38:20;6.65;;;2.90;;
35699;SDS011;21818;51.078;12.108;2023-06-14T07:40:46;7.28;;;3.13;;
35699;SDS011;21818;51.078;12.108;2023-06-14T07:43:13;15.65;;;3.03;;
35699;SDS011;21818;51.078;12.108;2023-06-14T07:45:38;14.48;;;3.75;;
35699;SDS011;21818;51.078;12.108;2023-06-14T07:48:04;7.38;;;2.90;;
35699;SDS011;21818;51.078;12.108;2023-06-14T07:50:30;10.15;;;3.42;;
35699;SDS011;21818;51.078;12.108;2023-06-14T07:52:55;8.00;;;2.83;;
35699;SDS011;21818;51.078;12.108;2023-06-14T07:55:21;10.13;;;2.92;;
35699;SDS011;21818;51.078;12.108;2023-06-14T07:57:47;9.40;;;3.05;;
35699;SDS011;21818;51.078;12.108;2023-06-14T08:00:12;8.95;;;2.95;;
35699;SDS011;21818;51.078;12.108;2023-06-14T08:02:41;10.57;;;3.22;;
35699;SDS011;21818;51.078;12.108;2023-06-14T08:05:08;8.00;;;2.70;;
35699;SDS011;21818;51.078;12.108;2023-06-14T08:07:36;10.02;;;3.42;;
35699;SDS011;21818;51.078;12.108;2023-06-14T08:10:02;6.93;;;3.13;;
35699;SDS011;21818;51.078;12.108;2023-06-14T08:12:28;8.45;;;2.95;;
35699;SDS011;21818;51.078;12.108;2023-06-14T08:14:53;10.50;;;3.03;;
35699;SDS011;21818;51.078;12.108;2023-06-14T08:17:19;8.82;;;3.38;;
35699;SDS011;21818;51.078;12.108;2023-06-14T08:19:45;9.95;;;2.95;;
35699;SDS011;21818;51.078;12.108;2023-06-14T08:22:10;6.88;;;2.78;;
35699;SDS011;21818;51.078;12.108;2023-06-14T08:24:37;10.10;;;3.40;;
35699;SDS011;21818;51.078;12.108;2023-06-14T08:27:02;8.60;;;2.88;;
35699;SDS011;21818;51.078;12.108;2023-06-14T08:29:28;8.02;;;2.80;;
35699;SDS011;21818;51.078;12.108;2023-06-14T08:31:56;7.88;;;2.80;;
35699;SDS011;21818;51.078;12.108;2023-06-14T08:34:22;9.57;;;2.90;;
35699;SDS011;21818;51.078;12.108;2023-06-14T08:36:50;11.23;;;2.90;;
35699;SDS011;21818;51.078;12.108;2023-06-14T08:39:16;8.63;;;3.22;;
35699;SDS011;21818;51.078;12.108;2023-06-14T08:41:42;9.20;;;2.80;;
35699;SDS011;21818;51.078;12.108;2023-06-14T08:44:11;7.22;;;2.60;;
35699;SDS011;21818;51.078;12.108;2023-06-14T08:46:37;5.50;;;2.50;;
35699;SDS011;21818;51.078;12.108;2023-06-14T08:49:03;6.95;;;3.20;;
35699;SDS011;21818;51.078;12.108;2023-06-14T08:51:31;8.20;;;2.97;;
35699;SDS011;21818;51.078;12.108;2023-06-14T08:54:01;7.03;;;2.70;;
35699;SDS011;21818;51.078;12.108;2023-06-14T08:56:29;8.23;;;2.90;;
35699;SDS011;21818;51.078;12.108;2023-06-14T08:58:58;8.95;;;3.03;;
35699;SDS011;21818;51.078;12.108;2023-06-14T09:01:28;9.45;;;2.72;;
35699;SDS011;21818;51.078;12.108;2023-06-14T09:03:59;7.93;;;2.85;;
35699;SDS011;21818;51.078;12.108;2023-06-14T09:06:25;6.30;;;2.53;;
35699;SDS011;21818;51.078;12.108;2023-06-14T09:08:53;8.60;;;3.38;;
35699;SDS011;21818;51.078;12.108;2023-06-14T09:11:20;10.65;;;2.72;;
35699;SDS011;21818;51.078;12.108;2023-06-14T09:13:46;5.07;;;2.35;;
35699;SDS011;21818;51.078;12.108;2023-06-14T09:16:12;8.20;;;2.78;;
35699;SDS011;21818;51.078;12.108;2023-06-14T09:18:38;7.45;;;2.53;;
35699;SDS011;21818;51.078;12.108;2023-06-14T09:21:06;6.95;;;2.85;;
35699;SDS011;21818;51.078;12.108;2023-06-14T09:23:41;8.18;;;2.50;;
35699;SDS011;21818;51.078;12.108;2023-06-14T09:26:09;8.18;;;2.60;;
35699;SDS011;21818;51.078;12.108;2023-06-14T09:28:42;7.22;;;2.55;;
35699;SDS011;21818;51.078;12.108;2023-06-14T09:31:12;7.35;;;2.80;;
35699;SDS011;21818;51.078;12.108;2023-06-14T09:33:38;5.90;;;2.33;;
35699;SDS011;21818;51.078;12.108;2023-06-14T09:36:10;6.97;;;2.55;;
35699;SDS011;21818;51.078;12.108;2023-06-14T09:38:39;7.15;;;2.58;;
35699;SDS011;21818;51.078;12.108;2023-06-14T09:41:05;5.97;;;2.40;;
35699;SDS011;21818;51.078;12.108;2023-06-14T09:43:31;6.85;;;2.80;;
35699;SDS011;21818;51.078;12.108;2023-06-14T09:45:59;5.50;;;2.10;;
35699;SDS011;21818;51.078;12.108;2023-06-14T09:48:25;9.20;;;2.80;;
35699;SDS011;21818;51.078;12.108;2023-06-14T09:50:51;6.78;;;2.50;;
35699;SDS011;21818;51.078;12.108;2023-06-14T09:53:20;8.40;;;3.33;;
35699;SDS011;21818;51.078;12.108;2023-06-14T09:55:48;7.00;;;3.10;;
35699;SDS011;21818;51.078;12.108;2023-06-14T09:58:15;6.78;;;2.72;;
35699;SDS011;21818;51.078;12.108;2023-06-14T10:00:44;7.93;;;2.70;;
35699;SDS011;21818;51.078;12.108;2023-06-14T10:03:12;6.90;;;2.25;;
35699;SDS011;21818;51.078;12.108;2023-06-14T10:05:39;8.57;;;2.70;;
35699;SDS011;21818;51.078;12.108;2023-06-14T10:08:08;7.43;;;3.10;;
35699;SDS011;21818;51.078;12.108;2023-06-14T10:10:35;6.53;;;2.50;;
35699;SDS011;21818;51.078;12.108;2023-06-14T10:13:05;9.90;;;3.13;;
35699;SDS011;21818;51.078;12.108;2023-06-14T10:18:35;7.00;;;2.97;;
35699;SDS011;21818;51.078;12.108;2023-06-14T10:24:04;5.25;;;2.42;;
35699;SDS011;21818;51.078;12.108;2023-06-14T10:26:32;6.13;;;2.38;;
35699;SDS011;21818;51.078;12.108;2023-06-14T10:28:59;7.03;;;2.17;;
35699;SDS011;21818;51.078;12.108;2023-06-14T10:31:45;5.90;;;2.33;;
35699;SDS011;21818;51.078;12.108;2023-06-14T10:34:21;6.47;;;2.85;;
35699;SDS011;21818;51.078;12.108;2023-06-14T10:37:00;6.03;;;2.58;;
35699;SDS011;21818;51.078;12.108;2023-06-14T10:39:27;6.63;;;2.70;;
35699;SDS011;21818;51.078;12.108;2023-06-14T10:41:53;6.35;;;2.28;;
35699;SDS011;21818;51.078;12.108;2023-06-14T10:46:46;6.63;;;2.53;;
35699;SDS011;21818;51.078;12.108;2023-06-14T10:49:12;9.02;;;2.22;;
35699;SDS011;21818;51.078;12.108;2023-06-14T10:51:44;4.30;;;2.20;;
35699;SDS011;21818;51.078;12.108;2023-06-14T10:54:14;6.80;;;2.53;;
35699;SDS011;21818;51.078;12.108;2023-06-14T10:57:02;6.90;;;2.35;;
35699;SDS011;21818;51.078;12.108;2023-06-14T10:59:26;6.40;;;2.63;;
35699;SDS011;21818;51.078;12.108;2023-06-14T11:10:37;4.40;;;2.20;;
35699;SDS011;21818;51.078;12.108;2023-06-14T11:13:04;5.85;;;2.70;;
35699;SDS011;21818;51.078;12.108;2023-06-14T11:15:30;6.65;;;2.45;;
35699;SDS011;21818;51.078;12.108;2023-06-14T11:17:57;7.55;;;2.70;;
35699;SDS011;21818;51.078;12.108;2023-06-14T11:20:25;6.75;;;2.33;;
35699;SDS011;21818;51.078;12.108;2023-06-14T11:22:52;8.60;;;2.35;;
35699;SDS011;21818;51.078;12.108;2023-06-14T11:25:18;6.70;;;2.38;;
35699;SDS011;21818;51.078;12.108;2023-06-14T11:27:44;6.65;;;2.60;;
35699;SDS011;21818;51.078;12.108;2023-06-14T11:30:11;6.93;;;2.58;;
35699;SDS011;21818;51.078;12.108;2023-06-14T11:32:38;5.60;;;2.30;;
35699;SDS011;21818;51.078;12.108;2023-06-14T11:35:04;6.82;;;2.67;;
35699;SDS011;21818;51.078;12.108;2023-06-14T11:37:30;6.40;;;2.40;;
35699;SDS011;21818;51.078;12.108;2023-06-14T11:39:59;5.88;;;2.55;;
35699;SDS011;21818;51.078;12.108;2023-06-14T11:42:28;5.55;;;2.30;;
35699;SDS011;21818;51.078;12.108;2023-06-14T11:44:55;5.90;;;2.22;;
35699;SDS011;21818;51.078;12.108;2023-06-14T11:47:20;4.78;;;2.30;;
35699;SDS011;21818;51.078;12.108;2023-06-14T11:49:47;5.88;;;2.42;;
35699;SDS011;21818;51.078;12.108;2023-06-14T11:52:12;4.22;;;2.03;;
35699;SDS011;21818;51.078;12.108;2023-06-14T11:54:38;5.78;;;2.42;;
35699;SDS011;21818;51.078;12.108;2023-06-14T11:57:07;3.17;;;1.75;;
35699;SDS011;21818;51.078;12.108;2023-06-14T11:59:39;4.88;;;2.13;;
35699;SDS011;21818;51.078;12.108;2023-06-14T12:02:05;4.25;;;2.22;;
35699;SDS011;21818;51.078;12.108;2023-06-14T12:04:32;3.70;;;1.98;;
35699;SDS011;21818;51.078;12.108;2023-06-14T12:07:08;4.63;;;2.17;;
35699;SDS011;21818;51.078;12.108;2023-06-14T12:09:37;4.57;;;2.10;;
35699;SDS011;21818;51.078;12.108;2023-06-14T12:12:02;5.38;;;2.25;;
35699;SDS011;21818;51.078;12.108;2023-06-14T12:14:29;6.78;;;2.65;;
35699;SDS011;21818;51.078;12.108;2023-06-14T12:17:04;5.13;;;2.63;;
35699;SDS011;21818;51.078;12.108;2023-06-14T12:19:33;5.53;;;2.30;;
35699;SDS011;21818;51.078;12.108;2023-06-14T12:22:06;5.97;;;2.65;;
35699;SDS011;21818;51.078;12.108;2023-06-14T12:24:35;5.88;;;2.15;;
35699;SDS011;21818;51.078;12.108;2023-06-14T12:27:00;7.28;;;2.53;;
35699;SDS011;21818;51.078;12.108;2023-06-14T12:29:28;4.07;;;2.35;;
35699;SDS011;21818;51.078;12.108;2023-06-14T12:31:54;3.65;;;1.92;;
35699;SDS011;21818;51.078;12.108;2023-06-14T12:34:22;3.67;;;2.08;;
35699;SDS011;21818;51.078;12.108;2023-06-14T12:36:49;5.13;;;2.30;;
35699;SDS011;21818;51.078;12.108;2023-06-14T12:39:15;4.75;;;2.33;;
35699;SDS011;21818;51.078;12.108;2023-06-14T12:41:41;6.18;;;2.40;;
35699;SDS011;21818;51.078;12.108;2023-06-14T12:44:07;4.57;;;2.00;;
35699;SDS011;21818;51.078;12.108;2023-06-14T12:46:33;5.32;;;2.42;;
35699;SDS011;21818;51.078;12.108;2023-06-14T12:49:00;5.00;;;2.08;;
35699;SDS011;21818;51.078;12.108;2023-06-14T12:51:25;5.07;;;2.08;;
35699;SDS011;21818;51.078;12.108;2023-06-14T12:53:51;4.70;;;2.00;;
35699;SDS011;21818;51.078;12.108;2023-06-14T12:56:17;6.78;;;2.60;;
35699;SDS011;21818;51.078;12.108;2023-06-14T12:58:43;4.55;;;1.88;;
35699;SDS011;21818;51.078;12.108;2023-06-14T13:01:08;3.53;;;1.63;;
35699;SDS011;21818;51.078;12.108;2023-06-14T13:03:34;5.47;;;2.15;;
35699;SDS011;21818;51.078;12.108;2023-06-14T13:06:00;4.93;;;2.10;;
35699;SDS011;21818;51.078;12.108;2023-06-14T13:08:26;4.78;;;2.00;;
35699;SDS011;21818;51.078;12.108;2023-06-14T13:10:53;3.47;;;1.85;;
35699;SDS011;21818;51.078;12.108;2023-06-14T13:13:19;5.57;;;2.20;;
35699;SDS011;21818;51.078;12.108;2023-06-14T13:15:44;5.32;;;2.08;;
35699;SDS011;21818;51.078;12.108;2023-06-14T13:18:10;4.43;;;1.95;;
35699;SDS011;21818;51.078;12.108;2023-06-14T13:20:38;4.57;;;1.85;;
35699;SDS011;21818;51.078;12.108;2023-06-14T13:23:04;3.78;;;2.13;;
35699;SDS011;21818;51.078;12.108;2023-06-14T13:25:31;4.25;;;2.00;;
35699;SDS011;21818;51.078;12.108;2023-06-14T13:27:56;4.75;;;1.92;;
35699;SDS011;21818;51.078;12.108;2023-06-14T13:30:22;2.90;;;1.63;;
35699;SDS011;21818;51.078;12.108;2023-06-14T13:32:48;4.53;;;1.98;;
35699;SDS011;21818;51.078;12.108;2023-06-14T13:35:13;5.10;;;2.05;;
35699;SDS011;21818;51.078;12.108;2023-06-14T13:37:39;8.00;;;2.30;;
35699;SDS011;21818;51.078;12.108;2023-06-14T13:40:05;5.25;;;2.47;;
35699;SDS011;21818;51.078;12.108;2023-06-14T13:42:31;4.32;;;2.13;;
35699;SDS011;21818;51.078;12.108;2023-06-14T13:44:57;4.13;;;1.67;;
35699;SDS011;21818;51.078;12.108;2023-06-14T13:47:23;3.58;;;1.90;;
35699;SDS011;21818;51.078;12.108;2023-06-14T13:49:49;5.07;;;2.17;;
35699;SDS011;21818;51.078;12.108;2023-06-14T13:52:14;4.13;;;1.92;;
35699;SDS011;21818;51.078;12.108;2023-06-14T13:54:40;4.93;;;2.35;;
35699;SDS011;21818;51.078;12.108;2023-06-14T13:57:07;4.43;;;2.10;;
35699;SDS011;21818;51.078;12.108;2023-06-14T13:59:32;3.78;;;2.00;;
35699;SDS011;21818;51.078;12.108;2023-06-14T14:01:58;5.55;;;2.03;;
35699;SDS011;21818;51.078;12.108;2023-06-14T14:04:24;4.53;;;1.90;;
35699;SDS011;21818;51.078;12.108;2023-06-14T14:06:49;4.25;;;2.15;;
35699;SDS011;21818;51.078;12.108;2023-06-14T14:09:15;4.10;;;2.20;;
35699;SDS011;21818;51.078;12.108;2023-06-14T14:11:40;3.35;;;1.95;;
35699;SDS011;21818;51.078;12.108;2023-06-14T14:14:07;4.53;;;1.92;;
35699;SDS011;21818;51.078;12.108;2023-06-14T14:16:33;3.63;;;1.85;;
35699;SDS011;21818;51.078;12.108;2023-06-14T14:18:59;4.30;;;1.88;;
35699;SDS011;21818;51.078;12.108;2023-06-14T14:21:26;5.45;;;2.40;;
35699;SDS011;21818;51.078;12.108;2023-06-14T14:23:52;3.50;;;1.98;;
35699;SDS011;21818;51.078;12.108;2023-06-14T14:26:18;5.65;;;2.08;;
35699;SDS011;21818;51.078;12.108;2023-06-14T14:28:43;4.20;;;1.92;;
35699;SDS011;21818;51.078;12.108;2023-06-14T14:31:09;4.25;;;1.85;;
35699;SDS011;21818;51.078;12.108;2023-06-14T14:33:35;5.25;;;1.90;;
35699;SDS011;21818;51.078;12.108;2023-06-14T14:36:00;3.20;;;1.80;;
35699;SDS011;21818;51.078;12.108;2023-06-14T14:38:28;4.13;;;1.80;;
35699;SDS011;21818;51.078;12.108;2023-06-14T14:40:54;3.75;;;2.10;;
35699;SDS011;21818;51.078;12.108;2023-06-14T14:43:20;3.15;;;1.67;;
35699;SDS011;21818;51.078;12.108;2023-06-14T14:45:45;4.75;;;1.80;;
35699;SDS011;21818;51.078;12.108;2023-06-14T14:48:11;4.20;;;1.90;;
35699;SDS011;21818;51.078;12.108;2023-06-14T14:50:36;4.80;;;1.90;;